Clarkridge, Arkansas
Current Conditions -  °F | °C
As of 11:53 PM on Sunday 25 Jan 2015 (Local Time) from KBPK Reporting Station
Overcast Overcast  
Wind Chill: 32°   Ceiling: 1800
Heat Index: 37°   Visibility: 10mi
Dew Point: 31°   Wind: 6mph
Humidity: 79%   Direction: NA
Pressure: 30.05"   Gusts: NA
Location:  36.48°N, 92.35°W
Report Text: KBPK 260553Z AUTO VRB05KT 10SM OVC018 03/M01 A3005 RMK AO2 SLP177 T00281006 10044 20028 401000028 53018
Loading
Personal Weather Stations






























Interactive Weather Map New forecast layout! Learn more

10-Day Weather Forecast

Advertisements
Track Severe Weather on mobile